Time;durP1;ratioP1;P1;durP2;ratioP2;P2;SDS_P1;SDS_P2;PMS_P1;PMS_P2;Temp;Humidity;BMP_temperature;BMP_pressure;BME280_temperature;BME280_humidity;BME280_pressure;Samples;Min_cycle;Max_cycle;Signal;HPM_P1;HPM_P2
2023/09/13 00:00:10;;;;;;;7.20;5.60;;;;;;;;;;5017915;28;20203;-76
2023/09/13 00:02:40;;;;;;;6.20;5.30;;;;;;;;;;5012770;28;20289;-77
2023/09/13 00:05:08;;;;;;;7.93;5.72;;;;;;;;;;5012536;28;20207;-76
2023/09/13 00:07:36;;;;;;;6.53;5.85;;;;;;;;;;5016138;28;20212;-76
2023/09/13 00:10:04;;;;;;;9.90;6.00;;;;;;;;;;5021175;28;20215;-76
2023/09/13 00:12:31;;;;;;;8.23;5.90;;;;;;;;;;5027123;28;20266;-76
2023/09/13 00:14:58;;;;;;;6.72;6.03;;;;;;;;;;5022293;28;20210;-76
2023/09/13 00:17:27;;;;;;;7.03;6.43;;;;;;;;;;5019849;28;20668;-77
2023/09/13 00:19:57;;;;;;;8.38;5.95;;;;;;;;;;5013241;28;20786;-76
2023/09/13 00:22:26;;;;;;;7.55;6.30;;;;;;;;;;5014259;28;20362;-77
2023/09/13 00:24:53;;;;;;;6.55;5.93;;;;;;;;;;5015670;28;20214;-76
2023/09/13 00:27:20;;;;;;;6.70;5.88;;;;;;;;;;5014837;28;20207;-75
2023/09/13 00:29:48;;;;;;;10.45;8.30;;;;;;;;;;5020468;28;20559;-76
2023/09/13 00:32:15;;;;;;;6.90;6.30;;;;;;;;;;5013147;28;20281;-76
2023/09/13 00:34:42;;;;;;;8.07;6.10;;;;;;;;;;5023406;28;20199;-77
2023/09/13 00:37:09;;;;;;;5.80;5.22;;;;;;;;;;5013672;28;20195;-77
2023/09/13 00:39:37;;;;;;;6.43;5.82;;;;;;;;;;5017976;28;20561;-77
2023/09/13 00:42:04;;;;;;;6.95;5.20;;;;;;;;;;5015681;28;20231;-76
2023/09/13 00:44:32;;;;;;;6.20;5.60;;;;;;;;;;5013727;28;20640;-76
2023/09/13 00:46:59;;;;;;;5.78;5.28;;;;;;;;;;5020409;28;20196;-77
2023/09/13 00:49:27;;;;;;;7.10;5.57;;;;;;;;;;5020083;28;20207;-76
2023/09/13 00:51:55;;;;;;;9.05;8.15;;;;;;;;;;5013550;28;20286;-76
2023/09/13 00:54:23;;;;;;;20.40;14.32;;;;;;;;;;5013248;28;20243;-77
2023/09/13 00:56:50;;;;;;;7.93;7.05;;;;;;;;;;5011750;28;20584;-76
2023/09/13 00:59:18;;;;;;;6.95;6.03;;;;;;;;;;5013933;28;20250;-77
2023/09/13 01:01:46;;;;;;;7.65;6.22;;;;;;;;;;5019601;28;20230;-76
2023/09/13 01:04:14;;;;;;;6.38;4.60;;;;;;;;;;5018723;28;20299;-75
2023/09/13 01:06:41;;;;;;;4.88;4.47;;;;;;;;;;5019802;28;20212;-76
2023/09/13 01:09:09;;;;;;;7.07;4.97;;;;;;;;;;5019841;28;20207;-76
2023/09/13 01:11:36;;;;;;;7.72;6.95;;;;;;;;;;5014022;28;20764;-76
2023/09/13 01:14:03;;;;;;;5.70;4.68;;;;;;;;;;5010080;28;20239;-76
2023/09/13 01:16:33;;;;;;;13.23;10.75;;;;;;;;;;5013769;28;20277;-76
2023/09/13 01:19:19;;;;;;;10.70;8.73;;;;;;;;;;5017262;28;20231;-75
2023/09/13 01:21:46;;;;;;;31.95;20.98;;;;;;;;;;5011245;28;20250;-75
2023/09/13 01:24:30;;;;;;;12.77;8.68;;;;;;;;;;5019594;28;20676;-76
2023/09/13 01:26:58;;;;;;;5.35;4.78;;;;;;;;;;5009460;28;20203;-75
2023/09/13 01:29:26;;;;;;;4.93;4.53;;;;;;;;;;5013648;28;20219;-75
2023/09/13 01:31:54;;;;;;;8.00;4.65;;;;;;;;;;5013435;28;20250;-76
2023/09/13 01:34:21;;;;;;;6.85;5.57;;;;;;;;;;5015404;28;20237;-77
2023/09/13 01:36:48;;;;;;;8.18;6.95;;;;;;;;;;5011156;28;20234;-76
2023/09/13 01:39:16;;;;;;;6.22;4.70;;;;;;;;;;5019101;28;20223;-76
2023/09/13 01:41:46;;;;;;;5.50;4.22;;;;;;;;;;5016886;28;20238;-76
2023/09/13 01:44:14;;;;;;;4.03;3.55;;;;;;;;;;5019831;28;20203;-76
2023/09/13 01:46:45;;;;;;;3.92;3.38;;;;;;;;;;5012077;28;20207;-77
2023/09/13 01:49:14;;;;;;;4.60;3.70;;;;;;;;;;5011753;28;20211;-76
2023/09/13 01:51:41;;;;;;;3.80;3.50;;;;;;;;;;5018379;28;20226;-76
2023/09/13 01:54:09;;;;;;;3.80;3.50;;;;;;;;;;5012157;28;20219;-76
2023/09/13 01:56:36;;;;;;;4.07;3.70;;;;;;;;;;5015241;28;20206;-76
2023/09/13 01:59:04;;;;;;;4.75;3.67;;;;;;;;;;5016192;28;20676;-76
2023/09/13 02:01:31;;;;;;;6.28;4.57;;;;;;;;;;5011006;28;20716;-76
2023/09/13 02:03:58;;;;;;;6.00;4.22;;;;;;;;;;5009093;28;20290;-76
2023/09/13 02:06:26;;;;;;;4.10;3.70;;;;;;;;;;5008591;28;20653;-76
2023/09/13 02:08:53;;;;;;;4.32;3.92;;;;;;;;;;5009709;28;20479;-76
2023/09/13 02:11:20;;;;;;;4.18;3.88;;;;;;;;;;5011138;28;20227;-76
2023/09/13 02:13:50;;;;;;;4.68;4.28;;;;;;;;;;5012300;28;20229;-76
2023/09/13 02:16:21;;;;;;;4.10;3.70;;;;;;;;;;5011974;28;20203;-76
2023/09/13 02:18:48;;;;;;;4.50;3.95;;;;;;;;;;5018376;28;20259;-76
2023/09/13 02:21:16;;;;;;;4.43;4.03;;;;;;;;;;5022915;28;20228;-76
2023/09/13 02:23:44;;;;;;;4.55;4.18;;;;;;;;;;5015045;28;20211;-75
2023/09/13 02:26:21;;;;;;;8.65;4.32;;;;;;;;;;5014545;28;20293;-75
2023/09/13 02:28:49;;;;;;;4.65;4.25;;;;;;;;;;5022117;28;20210;-76
2023/09/13 02:31:23;;;;;;;5.03;4.45;;;;;;;;;;5020125;28;20230;-76
2023/09/13 02:33:51;;;;;;;4.82;4.38;;;;;;;;;;5014345;28;20219;-76
2023/09/13 02:36:18;;;;;;;3.65;3.35;;;;;;;;;;5017149;28;20215;-77
2023/09/13 02:38:45;;;;;;;3.95;3.63;;;;;;;;;;5023202;28;20221;-75
2023/09/13 02:41:13;;;;;;;4.57;4.00;;;;;;;;;;5015621;28;20278;-76
2023/09/13 02:43:40;;;;;;;4.97;4.10;;;;;;;;;;5013871;28;20218;-76
2023/09/13 02:46:07;;;;;;;5.35;4.15;;;;;;;;;;5013062;28;20199;-75
2023/09/13 02:48:35;;;;;;;4.30;3.90;;;;;;;;;;5016363;28;20207;-77
2023/09/13 02:51:02;;;;;;;4.25;3.85;;;;;;;;;;5013163;28;20227;-76
2023/09/13 02:53:31;;;;;;;4.85;4.13;;;;;;;;;;5012842;28;20230;-77
2023/09/13 02:56:05;;;;;;;4.70;4.22;;;;;;;;;;5014445;28;20258;-77
2023/09/13 02:58:32;;;;;;;4.60;4.20;;;;;;;;;;5016604;28;20200;-76
2023/09/13 03:01:03;;;;;;;4.85;3.90;;;;;;;;;;5020585;28;20258;-76
2023/09/13 03:03:32;;;;;;;4.65;4.25;;;;;;;;;;5014683;28;20254;-76
2023/09/13 03:06:07;;;;;;;4.30;3.90;;;;;;;;;;5544644;23;21875;-78
2023/09/13 03:08:34;;;;;;;4.63;4.10;;;;;;;;;;5036818;28;20229;-76
2023/09/13 03:11:10;;;;;;;4.18;3.88;;;;;;;;;;5034868;28;20203;-78
2023/09/13 03:13:38;;;;;;;4.70;4.13;;;;;;;;;;5032629;28;20233;-78
2023/09/13 03:16:15;;;;;;;4.40;4.00;;;;;;;;;;5033206;28;20226;-77
2023/09/13 03:18:42;;;;;;;5.20;4.18;;;;;;;;;;5033587;28;20209;-76
2023/09/13 03:21:11;;;;;;;4.72;4.30;;;;;;;;;;5016175;28;20282;-76
2023/09/13 03:23:39;;;;;;;4.57;4.18;;;;;;;;;;5032960;28;20232;-76
2023/09/13 03:26:13;;;;;;;4.53;4.15;;;;;;;;;;5016319;28;20598;-77
2023/09/13 03:28:41;;;;;;;8.05;6.10;;;;;;;;;;5032719;28;20206;-77
2023/09/13 03:31:11;;;;;;;9.93;6.38;;;;;;;;;;5033376;28;20199;-78
2023/09/13 03:33:41;;;;;;;5.28;4.78;;;;;;;;;;5032730;28;20231;-77
2023/09/13 03:36:10;;;;;;;4.65;4.25;;;;;;;;;;5015170;28;20218;-78
2023/09/13 03:38:38;;;;;;;5.68;4.68;;;;;;;;;;5032036;28;20634;-77
2023/09/13 03:41:06;;;;;;;4.50;4.15;;;;;;;;;;5016103;28;20211;-78
2023/09/13 03:43:33;;;;;;;4.50;4.10;;;;;;;;;;5033322;28;20642;-77
2023/09/13 03:46:02;;;;;;;5.72;4.53;;;;;;;;;;5033041;28;20226;-75
2023/09/13 03:48:30;;;;;;;6.90;4.55;;;;;;;;;;5031409;28;20222;-78
2023/09/13 03:50:57;;;;;;;4.43;4.10;;;;;;;;;;5033312;28;20662;-78
2023/09/13 03:53:25;;;;;;;5.90;4.40;;;;;;;;;;5015385;28;20222;-78
2023/09/13 03:55:52;;;;;;;5.63;4.50;;;;;;;;;;5015368;28;20227;-78
2023/09/13 03:58:20;;;;;;;4.82;4.43;;;;;;;;;;5032979;28;20199;-77
2023/09/13 04:00:47;;;;;;;4.68;4.20;;;;;;;;;;5036567;28;20203;-78
2023/09/13 04:03:15;;;;;;;5.00;4.50;;;;;;;;;;5033493;28;20283;-77
2023/09/13 04:05:43;;;;;;;4.63;3.95;;;;;;;;;;5032641;28;20227;-78
2023/09/13 04:08:10;;;;;;;4.85;4.30;;;;;;;;;;5032694;28;20681;-76
2023/09/13 04:10:38;;;;;;;5.40;4.90;;;;;;;;;;5032255;28;20273;-77
2023/09/13 04:13:05;;;;;;;5.60;4.70;;;;;;;;;;5012415;28;20218;-77
2023/09/13 04:15:32;;;;;;;4.97;4.47;;;;;;;;;;5031777;28;20222;-77
2023/09/13 04:18:00;;;;;;;5.13;4.63;;;;;;;;;;5036108;28;20796;-78
2023/09/13 04:20:27;;;;;;;5.20;4.75;;;;;;;;;;5032237;28;20619;-77
2023/09/13 04:22:54;;;;;;;5.40;4.70;;;;;;;;;;5031925;28;20234;-77
2023/09/13 04:25:21;;;;;;;5.57;4.88;;;;;;;;;;5014703;28;20219;-78
2023/09/13 04:27:49;;;;;;;5.00;4.50;;;;;;;;;;5031342;28;20561;-76
2023/09/13 04:30:16;;;;;;;4.93;4.53;;;;;;;;;;5023977;28;20294;-74
2023/09/13 04:32:44;;;;;;;5.20;4.78;;;;;;;;;;5031829;28;20609;-76
2023/09/13 04:35:14;;;;;;;5.47;4.97;;;;;;;;;;5015884;28;20631;-76
2023/09/13 04:37:42;;;;;;;4.97;4.57;;;;;;;;;;5032285;28;20553;-77
2023/09/13 04:40:09;;;;;;;4.68;4.28;;;;;;;;;;5032148;28;20613;-77
2023/09/13 04:42:37;;;;;;;5.10;4.60;;;;;;;;;;5031792;28;20213;-79
2023/09/13 04:45:05;;;;;;;5.13;4.72;;;;;;;;;;5015378;28;20203;-78
2023/09/13 04:47:32;;;;;;;4.82;4.32;;;;;;;;;;5024164;28;20226;-77
2023/09/13 04:49:59;;;;;;;6.80;4.50;;;;;;;;;;5024806;28;20281;-79
2023/09/13 04:52:26;;;;;;;6.20;4.70;;;;;;;;;;5017934;28;20280;-78
2023/09/13 04:54:53;;;;;;;5.00;4.60;;;;;;;;;;5020147;28;20227;-78
2023/09/13 04:57:21;;;;;;;4.90;4.40;;;;;;;;;;5025517;28;20228;-77
2023/09/13 04:59:48;;;;;;;4.93;4.38;;;;;;;;;;5013065;28;20207;-76
2023/09/13 05:02:15;;;;;;;5.43;4.93;;;;;;;;;;5032209;28;20673;-78
2023/09/13 05:04:43;;;;;;;5.32;4.80;;;;;;;;;;5023806;28;20753;-76
2023/09/13 05:07:11;;;;;;;6.05;4.88;;;;;;;;;;5031371;28;20340;-76
2023/09/13 05:09:38;;;;;;;5.07;4.68;;;;;;;;;;5031688;28;20214;-77
2023/09/13 05:12:06;;;;;;;5.93;4.40;;;;;;;;;;5032072;28;20203;-77
2023/09/13 05:14:36;;;;;;;5.03;4.53;;;;;;;;;;5006052;28;20282;-75
2023/09/13 05:17:03;;;;;;;5.20;4.70;;;;;;;;;;5035708;28;20219;-78
2023/09/13 05:19:31;;;;;;;5.05;4.55;;;;;;;;;;5028204;28;20211;-75
2023/09/13 05:21:59;;;;;;;6.97;4.80;;;;;;;;;;5023690;28;20209;-78
2023/09/13 05:24:26;;;;;;;5.32;4.53;;;;;;;;;;5023509;28;20217;-78
2023/09/13 05:26:53;;;;;;;5.55;4.97;;;;;;;;;;5030909;28;20224;-76
2023/09/13 05:29:21;;;;;;;5.53;4.80;;;;;;;;;;5024678;28;20211;-76
2023/09/13 05:31:48;;;;;;;5.40;4.22;;;;;;;;;;5029612;28;20207;-79
2023/09/13 05:34:16;;;;;;;5.28;4.65;;;;;;;;;;5031117;28;20645;-78
2023/09/13 05:36:43;;;;;;;5.90;4.70;;;;;;;;;;5022801;28;20227;-77
2023/09/13 05:39:10;;;;;;;6.57;4.68;;;;;;;;;;5008616;28;20227;-76
2023/09/13 05:41:38;;;;;;;5.20;4.57;;;;;;;;;;5028522;28;20281;-76
2023/09/13 05:44:09;;;;;;;4.97;4.57;;;;;;;;;;5026504;28;20294;-76
2023/09/13 05:46:36;;;;;;;5.55;4.95;;;;;;;;;;5027002;28;20231;-77
2023/09/13 05:49:05;;;;;;;5.75;5.03;;;;;;;;;;5023314;28;20209;-77
2023/09/13 05:51:32;;;;;;;5.68;5.15;;;;;;;;;;5029287;28;20273;-75
2023/09/13 05:53:59;;;;;;;5.78;4.93;;;;;;;;;;5018546;28;20632;-77
2023/09/13 05:56:26;;;;;;;5.28;4.78;;;;;;;;;;5030280;28;20226;-77
2023/09/13 05:58:54;;;;;;;6.43;4.53;;;;;;;;;;5025309;28;20246;-77
2023/09/13 06:01:22;;;;;;;5.25;4.75;;;;;;;;;;5019161;28;20659;-77
2023/09/13 06:03:50;;;;;;;6.25;4.47;;;;;;;;;;5027403;28;20223;-76
2023/09/13 06:06:17;;;;;;;4.30;3.90;;;;;;;;;;5011796;28;20231;-77
2023/09/13 06:08:44;;;;;;;5.32;4.68;;;;;;;;;;5028317;28;20211;-78
2023/09/13 06:11:12;;;;;;;9.43;4.95;;;;;;;;;;5030436;28;20206;-77
2023/09/13 06:13:39;;;;;;;5.95;4.70;;;;;;;;;;5028720;28;20716;-77
2023/09/13 06:16:06;;;;;;;5.10;4.53;;;;;;;;;;5038922;28;20222;-76
2023/09/13 06:18:33;;;;;;;5.28;4.60;;;;;;;;;;5030027;28;20245;-78
2023/09/13 06:21:03;;;;;;;4.97;4.55;;;;;;;;;;5029354;28;20202;-77
2023/09/13 06:23:35;;;;;;;5.13;4.65;;;;;;;;;;5005528;28;20295;-77
2023/09/13 06:26:02;;;;;;;5.78;5.18;;;;;;;;;;5022671;28;20273;-76
2023/09/13 06:28:30;;;;;;;5.28;4.78;;;;;;;;;;5030034;28;20681;-77
2023/09/13 06:30:58;;;;;;;5.32;4.80;;;;;;;;;;5028910;28;20653;-75
2023/09/13 06:33:30;;;;;;;5.38;4.70;;;;;;;;;;5032054;28;20199;-77
2023/09/13 06:36:00;;;;;;;6.47;4.50;;;;;;;;;;5013558;28;20254;-77
2023/09/13 06:38:28;;;;;;;4.80;4.40;;;;;;;;;;5030281;28;20203;-77
2023/09/13 06:40:56;;;;;;;5.78;5.13;;;;;;;;;;5029993;28;20708;-76
2023/09/13 06:43:25;;;;;;;5.57;4.93;;;;;;;;;;5030398;28;20215;-76
2023/09/13 06:45:55;;;;;;;5.38;4.88;;;;;;;;;;5028155;28;20241;-77
2023/09/13 06:48:25;;;;;;;5.95;4.90;;;;;;;;;;5019619;28;20215;-77
2023/09/13 06:50:52;;;;;;;6.03;4.93;;;;;;;;;;5033493;28;20302;-76
2023/09/13 06:53:39;;;;;;;5.30;4.90;;;;;;;;;;5011961;28;20217;-78
2023/09/13 06:56:08;;;;;;;5.50;4.95;;;;;;;;;;5024055;28;20246;-77
2023/09/13 06:58:39;;;;;;;5.60;5.10;;;;;;;;;;5030215;28;20677;-77
2023/09/13 07:01:10;;;;;;;6.82;5.05;;;;;;;;;;5024342;28;20258;-77
2023/09/13 07:03:40;;;;;;;5.80;5.20;;;;;;;;;;5019008;28;20891;-77
2023/09/13 07:06:16;;;;;;;5.78;5.18;;;;;;;;;;5028272;28;20236;-77
2023/09/13 07:08:43;;;;;;;5.55;5.05;;;;;;;;;;5029006;28;20199;-78
2023/09/13 07:11:11;;;;;;;5.55;5.05;;;;;;;;;;5033616;28;20198;-76
2023/09/13 07:13:38;;;;;;;5.57;5.18;;;;;;;;;;5015624;28;20257;-77
2023/09/13 07:16:05;;;;;;;6.07;5.57;;;;;;;;;;5032633;28;20740;-77
2023/09/13 07:18:33;;;;;;;5.95;5.45;;;;;;;;;;5026054;28;20660;-76
2023/09/13 07:21:00;;;;;;;6.50;5.90;;;;;;;;;;5030505;28;20207;-77
2023/09/13 07:23:27;;;;;;;6.45;5.85;;;;;;;;;;5030119;28;20658;-78
2023/09/13 07:25:55;;;;;;;7.78;6.60;;;;;;;;;;5033237;28;20230;-77
2023/09/13 07:28:22;;;;;;;7.57;6.50;;;;;;;;;;5032875;28;20203;-77
2023/09/13 07:30:49;;;;;;;7.20;6.53;;;;;;;;;;5033307;28;20256;-77
2023/09/13 07:33:16;;;;;;;7.00;6.40;;;;;;;;;;5026335;28;20214;-79
2023/09/13 07:35:44;;;;;;;8.13;6.82;;;;;;;;;;5033184;28;20636;-78
2023/09/13 07:38:11;;;;;;;7.55;6.85;;;;;;;;;;5026355;28;20203;-78
2023/09/13 07:40:39;;;;;;;7.20;6.57;;;;;;;;;;5019597;28;20234;-77
2023/09/13 07:43:07;;;;;;;9.00;8.20;;;;;;;;;;5032441;28;20195;-77
2023/09/13 07:45:34;;;;;;;9.95;7.25;;;;;;;;;;5032445;28;20289;-75
2023/09/13 07:48:02;;;;;;;7.63;6.93;;;;;;;;;;5032226;28;20256;-79
2023/09/13 07:50:36;;;;;;;7.53;6.35;;;;;;;;;;5026271;28;20210;-78
2023/09/13 07:53:04;;;;;;;8.30;6.93;;;;;;;;;;5026200;28;20210;-77
2023/09/13 07:55:33;;;;;;;8.07;7.38;;;;;;;;;;5023136;28;20239;-77
2023/09/13 07:58:02;;;;;;;9.10;6.72;;;;;;;;;;5032890;28;20265;-77
2023/09/13 08:00:30;;;;;;;7.78;6.55;;;;;;;;;;5032720;28;20225;-78
2023/09/13 08:02:58;;;;;;;7.40;6.80;;;;;;;;;;5015101;28;20210;-77
2023/09/13 08:05:26;;;;;;;7.68;6.97;;;;;;;;;;5032681;28;20206;-77
2023/09/13 08:07:53;;;;;;;7.50;6.80;;;;;;;;;;5031154;28;20227;-77
2023/09/13 08:10:24;;;;;;;8.65;7.78;;;;;;;;;;5015812;28;20207;-75
2023/09/13 08:12:52;;;;;;;6.90;6.30;;;;;;;;;;5031211;28;20666;-77
2023/09/13 08:15:19;;;;;;;9.23;6.00;;;;;;;;;;5015132;28;20230;-76
2023/09/13 08:18:00;;;;;;;6.97;6.38;;;;;;;;;;5008394;28;20589;-75
2023/09/13 08:20:27;;;;;;;7.22;6.60;;;;;;;;;;5031935;28;20265;-75
2023/09/13 08:22:54;;;;;;;10.70;7.55;;;;;;;;;;5023718;28;20720;-77
2023/09/13 08:25:21;;;;;;;26.67;21.02;;;;;;;;;;5020377;28;20216;-76
2023/09/13 08:27:51;;;;;;;6.85;6.13;;;;;;;;;;5031620;28;20207;-77
2023/09/13 08:30:18;;;;;;;7.80;6.18;;;;;;;;;;5031908;28;20277;-76
2023/09/13 08:32:45;;;;;;;8.02;6.28;;;;;;;;;;5025746;28;20265;-76
2023/09/13 08:35:12;;;;;;;4.10;3.80;;;;;;;;;;5025336;28;20266;-78
2023/09/13 08:37:39;;;;;;;3.92;3.55;;;;;;;;;;5025007;28;20729;-77
2023/09/13 08:40:07;;;;;;;10.30;7.78;;;;;;;;;;5031431;28;20490;-78
2023/09/13 08:42:35;;;;;;;20.98;13.98;;;;;;;;;;5025490;28;20207;-76
2023/09/13 08:45:02;;;;;;;13.20;10.32;;;;;;;;;;5031531;28;20214;-76
2023/09/13 08:47:31;;;;;;;6.82;5.78;;;;;;;;;;5031246;28;20611;-77
2023/09/13 08:50:24;;;;;;;5.10;4.63;;;;;;;;;;5028500;28;20214;-76
2023/09/13 08:52:52;;;;;;;5.80;5.25;;;;;;;;;;5018882;28;20211;-77
2023/09/13 08:55:20;;;;;;;4.25;3.85;;;;;;;;;;5032117;28;20227;-77
2023/09/13 08:57:48;;;;;;;3.95;3.60;;;;;;;;;;5030384;28;20199;-76
2023/09/13 09:00:15;;;;;;;4.13;3.35;;;;;;;;;;5021614;28;20285;-76
2023/09/13 09:02:43;;;;;;;3.70;3.38;;;;;;;;;;5022902;28;20208;-76
2023/09/13 09:05:12;;;;;;;3.80;3.50;;;;;;;;;;5012598;28;20207;-76
2023/09/13 09:07:41;;;;;;;3.92;3.63;;;;;;;;;;5030659;28;20219;-77
2023/09/13 09:10:11;;;;;;;4.00;3.60;;;;;;;;;;5028218;28;20231;-77
2023/09/13 09:12:45;;;;;;;4.90;3.70;;;;;;;;;;5029112;28;20253;-77
2023/09/13 09:15:14;;;;;;;3.40;3.10;;;;;;;;;;5021257;28;20243;-76
2023/09/13 09:17:42;;;;;;;4.97;3.33;;;;;;;;;;5022096;28;20211;-78
2023/09/13 09:20:10;;;;;;;3.30;3.10;;;;;;;;;;5015532;28;20292;-77
2023/09/13 09:22:37;;;;;;;3.60;3.30;;;;;;;;;;5028930;28;20199;-76
2023/09/13 09:25:10;;;;;;;5.75;3.60;;;;;;;;;;5024567;28;20663;-77
2023/09/13 09:27:39;;;;;;;4.10;2.85;;;;;;;;;;5030296;28;20207;-77
2023/09/13 09:30:14;;;;;;;3.45;3.22;;;;;;;;;;5013377;28;20210;-77
2023/09/13 09:32:44;;;;;;;3.55;3.25;;;;;;;;;;5025438;28;20211;-77
2023/09/13 09:35:14;;;;;;;4.18;3.40;;;;;;;;;;5013514;28;20277;-77
2023/09/13 09:37:44;;;;;;;4.88;3.05;;;;;;;;;;5007400;28;20210;-77
2023/09/13 09:40:15;;;;;;;3.47;3.03;;;;;;;;;;5033452;28;20199;-78
2023/09/13 09:42:43;;;;;;;3.85;3.55;;;;;;;;;;5030877;28;20655;-77
2023/09/13 09:45:10;;;;;;;3.70;3.20;;;;;;;;;;5024599;28;20257;-77
2023/09/13 09:47:38;;;;;;;3.40;3.10;;;;;;;;;;5024593;28;20234;-75
2023/09/13 09:50:06;;;;;;;3.70;2.92;;;;;;;;;;5030443;28;20219;-76
2023/09/13 09:52:34;;;;;;;2.75;2.55;;;;;;;;;;5024661;28;20798;-76
2023/09/13 09:55:04;;;;;;;3.00;2.50;;;;;;;;;;5024078;28;20223;-77
2023/09/13 09:57:32;;;;;;;3.00;2.80;;;;;;;;;;5028994;28;20239;-76
2023/09/13 10:00:00;;;;;;;2.97;2.67;;;;;;;;;;5028344;28;20229;-76
2023/09/13 10:02:28;;;;;;;2.92;2.72;;;;;;;;;;5025703;28;20207;-76
2023/09/13 10:04:55;;;;;;;3.42;2.85;;;;;;;;;;5033966;28;20230;-75
2023/09/13 10:07:23;;;;;;;2.72;2.53;;;;;;;;;;5029981;28;20245;-77
2023/09/13 10:09:50;;;;;;;2.78;2.58;;;;;;;;;;5024372;28;20203;-77
2023/09/13 10:12:18;;;;;;;2.58;2.38;;;;;;;;;;5030418;28;20835;-76
2023/09/13 10:14:45;;;;;;;2.60;2.40;;;;;;;;;;5030616;28;20234;-76
2023/09/13 10:17:13;;;;;;;3.03;2.75;;;;;;;;;;5029731;28;20223;-76
2023/09/13 10:19:42;;;;;;;2.95;2.75;;;;;;;;;;5030268;28;20203;-76
2023/09/13 10:22:13;;;;;;;3.38;3.05;;;;;;;;;;5021044;28;20211;-78
2023/09/13 10:24:52;;;;;;;2.58;2.40;;;;;;;;;;5027871;28;20206;-77
2023/09/13 10:27:22;;;;;;;3.10;2.90;;;;;;;;;;5026299;28;20222;-76
2023/09/13 10:29:53;;;;;;;2.78;2.60;;;;;;;;;;5025260;28;20626;-77
2023/09/13 10:32:22;;;;;;;2.72;2.50;;;;;;;;;;5027005;28;20250;-76
2023/09/13 10:34:53;;;;;;;2.58;2.38;;;;;;;;;;5023324;28;20256;-76
2023/09/13 10:37:41;;;;;;;2.80;2.60;;;;;;;;;;5030747;28;20226;-76
2023/09/13 10:40:11;;;;;;;3.28;2.80;;;;;;;;;;5034012;28;20298;-77
2023/09/13 10:42:39;;;;;;;2.80;2.60;;;;;;;;;;5028292;28;20208;-76
2023/09/13 10:45:09;;;;;;;2.40;2.30;;;;;;;;;;5025581;28;20207;-76
2023/09/13 10:47:37;;;;;;;2.28;2.17;;;;;;;;;;5031511;28;20235;-78
2023/09/13 10:50:07;;;;;;;2.30;2.10;;;;;;;;;;5014968;28;20718;-78
2023/09/13 10:52:34;;;;;;;2.47;1.90;;;;;;;;;;5030709;28;20249;-76
2023/09/13 10:55:06;;;;;;;2.47;2.28;;;;;;;;;;5027932;28;20233;-76
2023/09/13 10:57:34;;;;;;;2.30;2.20;;;;;;;;;;5039521;28;20273;-76
2023/09/13 11:00:09;;;;;;;2.30;2.10;;;;;;;;;;5028009;28;20206;-76
2023/09/13 11:02:40;;;;;;;2.20;2.10;;;;;;;;;;5033265;28;20841;-76
2023/09/13 11:05:11;;;;;;;3.67;2.70;;;;;;;;;;5031354;28;20693;-76
2023/09/13 11:07:43;;;;;;;2.53;2.33;;;;;;;;;;5030282;28;20210;-75
2023/09/13 11:10:14;;;;;;;2.67;2.47;;;;;;;;;;5030639;28;20203;-77
2023/09/13 11:12:51;;;;;;;3.40;2.20;;;;;;;;;;5025398;28;20204;-76
2023/09/13 11:15:22;;;;;;;3.58;3.28;;;;;;;;;;5024499;28;20669;-77
2023/09/13 11:17:50;;;;;;;2.85;2.30;;;;;;;;;;5031798;28;20199;-76
2023/09/13 11:20:30;;;;;;;2.75;2.55;;;;;;;;;;5024227;28;20257;-78
2023/09/13 11:23:09;;;;;;;2.92;2.72;;;;;;;;;;5032962;28;20199;-79
2023/09/13 11:26:04;;;;;;;2.80;2.60;;;;;;;;;;5017616;28;20710;-77
2023/09/13 11:28:37;;;;;;;2.80;2.50;;;;;;;;;;5022088;28;20207;-77
2023/09/13 11:31:09;;;;;;;3.08;2.88;;;;;;;;;;5027442;28;20199;-79
2023/09/13 11:33:50;;;;;;;2.80;2.60;;;;;;;;;;5027965;28;20200;-78
2023/09/13 11:36:17;;;;;;;3.03;2.83;;;;;;;;;;5027337;28;20235;-79
2023/09/13 11:38:44;;;;;;;4.72;3.03;;;;;;;;;;5033186;28;20203;-78
2023/09/13 11:41:21;;;;;;;2.95;2.65;;;;;;;;;;5030410;28;20207;-77
2023/09/13 11:43:50;;;;;;;5.18;3.03;;;;;;;;;;5041771;28;20203;-79
2023/09/13 11:46:30;;;;;;;2.92;2.70;;;;;;;;;;5028640;28;20218;-78
2023/09/13 11:48:59;;;;;;;3.53;3.22;;;;;;;;;;5021135;28;20781;-79
2023/09/13 11:51:32;;;;;;;3.30;3.00;;;;;;;;;;5032642;28;20203;-78
2023/09/13 11:54:22;;;;;;;2.90;2.70;;;;;;;;;;5032280;28;20202;-78
2023/09/13 11:56:54;;;;;;;2.95;2.75;;;;;;;;;;5019319;28;20234;-79
2023/09/13 11:59:43;;;;;;;2.50;2.40;;;;;;;;;;5024995;28;20202;-77
2023/09/13 12:02:12;;;;;;;3.53;2.25;;;;;;;;;;5032414;28;20207;-77
2023/09/13 12:04:44;;;;;;;2.63;2.42;;;;;;;;;;5032321;28;20669;-77
2023/09/13 12:07:14;;;;;;;10.05;3.10;;;;;;;;;;5031928;28;20304;-77
2023/09/13 12:09:54;;;;;;;6.00;3.90;;;;;;;;;;5032313;28;20265;-78
2023/09/13 12:12:25;;;;;;;3.47;2.63;;;;;;;;;;5017980;28;20260;-80
2023/09/13 12:15:14;;;;;;;3.28;2.97;;;;;;;;;;5010147;28;20302;-78
2023/09/13 12:18:03;;;;;;;3.20;2.90;;;;;;;;;;5026010;28;20225;-78
2023/09/13 12:20:31;;;;;;;4.40;3.33;;;;;;;;;;5023994;28;20199;-78
2023/09/13 12:22:59;;;;;;;4.32;3.75;;;;;;;;;;5028349;28;20677;-76
2023/09/13 12:25:26;;;;;;;5.18;4.38;;;;;;;;;;5027585;28;20238;-79
2023/09/13 12:27:53;;;;;;;4.55;4.15;;;;;;;;;;5021389;28;20269;-79
2023/09/13 12:30:21;;;;;;;4.25;3.90;;;;;;;;;;5013122;28;20253;-79
2023/09/13 12:32:51;;;;;;;5.07;4.25;;;;;;;;;;5031797;28;20233;-78
2023/09/13 12:35:18;;;;;;;3.60;3.30;;;;;;;;;;5022915;28;20204;-77
2023/09/13 12:37:57;;;;;;;4.80;3.80;;;;;;;;;;5030051;28;20655;-79
2023/09/13 12:40:27;;;;;;;4.28;3.88;;;;;;;;;;5014658;28;20273;-77
2023/09/13 12:42:58;;;;;;;4.70;4.07;;;;;;;;;;5031519;28;20662;-76
2023/09/13 12:45:30;;;;;;;4.50;4.15;;;;;;;;;;5027230;28;20194;-79
2023/09/13 12:47:57;;;;;;;5.68;5.18;;;;;;;;;;5031687;28;20207;-77
2023/09/13 12:50:25;;;;;;;4.47;4.18;;;;;;;;;;5027193;28;20203;-78
2023/09/13 12:53:00;;;;;;;4.78;4.38;;;;;;;;;;5028152;28;20195;-79
2023/09/13 12:55:28;;;;;;;4.85;3.90;;;;;;;;;;5013927;28;20199;-77
2023/09/13 12:58:00;;;;;;;8.90;6.70;;;;;;;;;;5031254;28;20264;-79
2023/09/13 13:00:29;;;;;;;7.60;6.55;;;;;;;;;;5027074;28;20199;-78
2023/09/13 13:02:56;;;;;;;3.72;3.40;;;;;;;;;;5013817;28;20234;-78
2023/09/13 13:05:24;;;;;;;3.80;3.50;;;;;;;;;;5035028;28;20199;-76
2023/09/13 13:07:51;;;;;;;4.38;3.97;;;;;;;;;;5030753;28;20285;-77
2023/09/13 13:10:21;;;;;;;5.00;4.50;;;;;;;;;;5031295;28;20624;-77
2023/09/13 13:12:54;;;;;;;4.57;4.18;;;;;;;;;;5031033;28;20676;-77
2023/09/13 13:15:29;;;;;;;5.90;4.70;;;;;;;;;;5027951;28;20200;-77
2023/09/13 13:17:56;;;;;;;5.07;4.57;;;;;;;;;;5030649;28;20206;-78
2023/09/13 13:20:23;;;;;;;6.07;5.45;;;;;;;;;;5033907;28;20195;-77
2023/09/13 13:22:54;;;;;;;5.47;4.93;;;;;;;;;;5014714;28;20666;-77
2023/09/13 13:25:24;;;;;;;5.85;5.28;;;;;;;;;;5028773;28;20227;-78
2023/09/13 13:27:52;;;;;;;6.90;5.93;;;;;;;;;;5029835;28;20207;-79
2023/09/13 13:30:20;;;;;;;6.47;5.88;;;;;;;;;;5026315;28;20214;-78
2023/09/13 13:32:47;;;;;;;10.43;8.05;;;;;;;;;;5031156;28;20203;-77
2023/09/13 13:35:14;;;;;;;6.43;5.80;;;;;;;;;;5011424;28;20585;-78
2023/09/13 13:37:45;;;;;;;6.20;5.35;;;;;;;;;;5030393;28;20230;-77
2023/09/13 13:40:12;;;;;;;6.03;5.10;;;;;;;;;;5030343;28;20215;-77
2023/09/13 13:42:39;;;;;;;5.72;5.20;;;;;;;;;;5030654;28;20199;-78
2023/09/13 13:45:07;;;;;;;6.10;5.50;;;;;;;;;;5010066;28;20622;-77
2023/09/13 13:47:34;;;;;;;5.57;5.07;;;;;;;;;;5030076;28;20222;-78
2023/09/13 13:50:01;;;;;;;4.30;3.88;;;;;;;;;;5026219;28;20682;-77
2023/09/13 13:52:29;;;;;;;4.22;3.85;;;;;;;;;;5030658;28;20724;-76
2023/09/13 13:54:56;;;;;;;3.72;3.42;;;;;;;;;;5026771;28;20560;-78
2023/09/13 13:57:23;;;;;;;4.18;3.78;;;;;;;;;;5030560;28;20223;-78
2023/09/13 13:59:50;;;;;;;7.35;6.60;;;;;;;;;;5030921;28;20278;-78
2023/09/13 14:02:21;;;;;;;4.13;3.78;;;;;;;;;;5026102;28;20701;-79
2023/09/13 14:04:50;;;;;;;3.85;3.55;;;;;;;;;;5012909;28;20282;-79
2023/09/13 14:07:17;;;;;;;4.68;3.97;;;;;;;;;;5010102;28;20769;-78
2023/09/13 14:09:44;;;;;;;4.97;4.57;;;;;;;;;;5029000;28;20203;-79
2023/09/13 14:12:11;;;;;;;4.68;4.28;;;;;;;;;;5016288;28;20207;-76
2023/09/13 14:14:39;;;;;;;5.55;4.07;;;;;;;;;;5043207;28;20290;-78
2023/09/13 14:17:06;;;;;;;4.07;3.78;;;;;;;;;;5033926;28;20226;-77
2023/09/13 14:19:33;;;;;;;4.65;4.25;;;;;;;;;;5034441;28;20199;-77
2023/09/13 14:22:03;;;;;;;4.30;4.00;;;;;;;;;;5017114;28;20257;-76
2023/09/13 14:24:30;;;;;;;4.80;4.40;;;;;;;;;;5030801;28;20195;-81
2023/09/13 14:26:58;;;;;;;6.30;5.10;;;;;;;;;;5034059;28;20237;-78
2023/09/13 14:29:25;;;;;;;7.00;5.30;;;;;;;;;;5034185;28;20705;-78
2023/09/13 14:31:56;;;;;;;5.00;3.72;;;;;;;;;;5016156;28;20662;-79
2023/09/13 14:34:25;;;;;;;3.90;3.60;;;;;;;;;;5034144;28;20233;-78
2023/09/13 14:36:55;;;;;;;3.60;3.40;;;;;;;;;;5029933;28;20250;-79
2023/09/13 14:39:22;;;;;;;5.18;3.60;;;;;;;;;;5016600;28;20386;-77
2023/09/13 14:41:52;;;;;;;3.83;3.53;;;;;;;;;;5034063;28;20198;-77
2023/09/13 14:44:20;;;;;;;3.65;3.35;;;;;;;;;;5029856;28;20211;-77
2023/09/13 14:46:47;;;;;;;3.58;3.28;;;;;;;;;;5016255;28;20234;-78
2023/09/13 14:49:19;;;;;;;4.43;4.00;;;;;;;;;;5016366;28;20230;-80
2023/09/13 14:51:47;;;;;;;3.28;2.97;;;;;;;;;;5034204;28;20723;-79
2023/09/13 14:54:17;;;;;;;4.05;3.28;;;;;;;;;;5032464;28;20213;-78